createdAt,value
2022-10-28T00:01:22.715Z,18.02
2022-10-28T00:03:53.569Z,20.17
2022-10-28T00:06:23.935Z,19.17
2022-10-28T00:08:52.180Z,16.77
2022-10-28T00:11:22.990Z,15.05
2022-10-28T00:13:54.080Z,16.65
2022-10-28T00:16:24.607Z,17.10
2022-10-28T00:18:54.088Z,17.13
2022-10-28T00:21:25.277Z,17.45
2022-10-28T00:23:52.976Z,17.98
2022-10-28T00:26:23.408Z,14.32
2022-10-28T00:28:56.719Z,13.75
2022-10-28T00:31:26.227Z,16.48
2022-10-28T00:33:54.380Z,15.38
2022-10-28T00:36:24.277Z,15.10
2022-10-28T00:38:54.049Z,14.38
2022-10-28T00:41:30.773Z,15.30
2022-10-28T00:44:01.820Z,13.25
2022-10-28T00:46:46.604Z,16.87
2022-10-28T00:49:21.342Z,16.62
2022-10-28T00:51:53.719Z,14.05
2022-10-28T00:54:22.740Z,16.17
2022-10-28T00:56:56.053Z,19.60
2022-10-28T00:59:35.114Z,16.17
2022-10-28T01:02:05.282Z,20.40
2022-10-28T01:04:33.079Z,17.48
2022-10-28T01:07:02.449Z,16.58
2022-10-28T01:09:30.274Z,17.70
2022-10-28T01:12:20.423Z,15.52
2022-10-28T01:15:16.215Z,26.03
2022-10-28T01:18:19.601Z,42.03
2022-10-28T01:20:56.527Z,38.85
2022-10-28T01:23:49.958Z,22.27
2022-10-28T01:26:20.531Z,36.10
2022-10-28T01:29:06.524Z,48.27
2022-10-28T01:32:25.527Z,28.75
2022-10-28T01:34:58.794Z,59.40
2022-10-28T01:37:47.647Z,24.52
2022-10-28T01:40:39.202Z,38.47
2022-10-28T01:43:22.193Z,57.95
2022-10-28T01:45:59.141Z,31.02
2022-10-28T01:48:45.413Z,23.15
2022-10-28T01:51:30.483Z,34.35
2022-10-28T01:54:02.505Z,25.65
2022-10-28T01:56:40.353Z,6.47
2022-10-28T01:59:13.364Z,18.15
2022-10-28T02:01:41.479Z,40.03
2022-10-28T02:04:09.532Z,70.57
2022-10-28T02:06:38.936Z,44.10
2022-10-28T02:09:19.853Z,104.12
2022-10-28T02:14:27.263Z,80.53
2022-10-28T02:17:02.390Z,59.35
2022-10-28T02:19:39.646Z,83.05
2022-10-28T02:22:38.337Z,6.20
2022-10-28T02:25:20.536Z,60.20
2022-10-28T02:28:05.778Z,41.13
2022-10-28T02:30:44.438Z,51.88
2022-10-28T02:33:18.436Z,31.08
2022-10-28T02:35:57.674Z,27.13
2022-10-28T02:38:34.419Z,18.60
2022-10-28T02:41:30.169Z,18.33
2022-10-28T02:44:04.283Z,15.18
2022-10-28T02:46:35.669Z,20.10
2022-10-28T02:49:07.796Z,8.02
2022-10-28T02:51:40.052Z,25.92
2022-10-28T02:54:12.332Z,19.23
2022-10-28T02:56:47.054Z,12.70
2022-10-28T02:59:15.033Z,19.12
2022-10-28T03:01:42.654Z,9.43
2022-10-28T03:04:10.650Z,7.82
2022-10-28T03:06:38.509Z,7.22
2022-10-28T03:09:06.251Z,7.25
2022-10-28T03:11:34.153Z,5.28
2022-10-28T03:14:02.141Z,6.70
2022-10-28T03:16:29.696Z,8.48
2022-10-28T03:18:57.332Z,10.02
2022-10-28T03:21:25.295Z,29.25
2022-10-28T03:23:52.914Z,16.90
2022-10-28T03:26:20.500Z,7.07
2022-10-28T03:28:48.344Z,24.52
2022-10-28T03:31:16.977Z,12.25
2022-10-28T03:33:44.486Z,22.52
2022-10-28T03:36:12.365Z,13.73
2022-10-28T03:38:39.843Z,25.45
2022-10-28T03:41:07.374Z,12.95
2022-10-28T03:43:35.188Z,8.77
2022-10-28T03:46:02.739Z,21.87
2022-10-28T03:48:30.281Z,22.70
2022-10-28T03:50:58.100Z,17.02
2022-10-28T03:53:27.701Z,31.42
2022-10-28T03:56:00.415Z,22.17
2022-10-28T03:58:28.303Z,9.75
2022-10-28T04:00:56.924Z,19.37
2022-10-28T04:03:25.917Z,18.83
2022-10-28T04:05:53.825Z,16.42
2022-10-28T04:08:21.912Z,7.28
2022-10-28T04:10:49.771Z,25.88
2022-10-28T04:13:17.893Z,10.73
2022-10-28T04:15:45.441Z,13.55
2022-10-28T04:18:13.460Z,8.38
2022-10-28T04:20:41.119Z,6.03
2022-10-28T04:23:11.193Z,6.35
2022-10-28T04:25:38.973Z,9.80
2022-10-28T04:28:06.577Z,7.35
2022-10-28T04:30:34.247Z,5.68
2022-10-28T04:33:02.150Z,12.23
2022-10-28T04:35:29.684Z,12.35
2022-10-28T04:37:57.260Z,10.50
2022-10-28T04:40:25.587Z,7.43
2022-10-28T04:42:53.442Z,6.25
2022-10-28T04:45:21.161Z,7.40
2022-10-28T04:47:48.942Z,6.65
2022-10-28T04:50:16.527Z,7.80
2022-10-28T04:52:44.271Z,9.82
2022-10-28T04:55:12.131Z,6.78
2022-10-28T04:57:39.798Z,25.55
2022-10-28T05:00:07.870Z,8.13
2022-10-28T05:02:35.750Z,9.30
2022-10-28T05:05:04.665Z,7.87
2022-10-28T05:07:32.237Z,10.63
2022-10-28T05:10:00.049Z,10.57
2022-10-28T05:12:27.547Z,8.38
2022-10-28T05:14:55.039Z,8.20
2022-10-28T05:17:23.101Z,8.45
2022-10-28T05:19:50.721Z,8.45
2022-10-28T05:22:18.383Z,7.40
2022-10-28T05:24:46.244Z,6.95
2022-10-28T05:27:13.726Z,7.12
2022-10-28T05:29:41.272Z,7.07
2022-10-28T05:32:09.120Z,8.93
2022-10-28T05:34:36.740Z,8.38
2022-10-28T05:37:04.274Z,8.32
2022-10-28T05:39:32.285Z,7.20
2022-10-28T05:41:59.825Z,9.43
2022-10-28T05:44:27.327Z,8.77
2022-10-28T05:46:55.791Z,7.32
2022-10-28T05:49:23.397Z,7.82
2022-10-28T05:51:50.904Z,8.35
2022-10-28T05:54:18.931Z,11.10
2022-10-28T05:56:46.531Z,8.73
2022-10-28T05:59:14.170Z,8.80
2022-10-28T06:01:42.032Z,9.05
2022-10-28T06:04:10.006Z,11.35
2022-10-28T06:06:37.626Z,17.98
2022-10-28T06:09:05.164Z,11.77
2022-10-28T06:11:33.240Z,13.10
2022-10-28T06:14:00.837Z,12.60
2022-10-28T06:16:28.419Z,13.45
2022-10-28T06:18:56.939Z,15.23
2022-10-28T06:21:24.527Z,12.40
2022-10-28T06:23:52.142Z,12.73
2022-10-28T06:26:19.964Z,10.50
2022-10-28T06:28:47.498Z,13.18
2022-10-28T06:31:15.129Z,12.63
2022-10-28T06:33:42.961Z,11.80
2022-10-28T06:36:10.546Z,13.23
2022-10-28T06:38:41.021Z,13.88
2022-10-28T06:41:08.894Z,12.68
2022-10-28T06:43:36.389Z,14.05
2022-10-28T06:46:04.353Z,15.30
2022-10-28T06:48:33.804Z,14.95
2022-10-28T06:51:01.398Z,15.25
2022-10-28T06:53:29.002Z,16.73
2022-10-28T06:55:58.347Z,13.62
2022-10-28T06:58:26.338Z,12.70
2022-10-28T07:00:54.735Z,11.05
2022-10-28T07:03:22.758Z,10.98
2022-10-28T07:05:51.615Z,12.35
2022-10-28T07:08:19.650Z,10.65
2022-10-28T07:10:58.242Z,10.27
2022-10-28T07:13:26.763Z,12.52
2022-10-28T07:15:59.676Z,10.32
2022-10-28T07:18:29.754Z,11.93
2022-10-28T07:21:02.034Z,13.65
2022-10-28T07:23:32.530Z,14.30
2022-10-28T07:26:01.113Z,14.27
2022-10-28T07:28:29.008Z,11.63
2022-10-28T07:31:04.226Z,11.68
2022-10-28T07:33:32.146Z,12.63
2022-10-28T07:36:02.546Z,13.15
2022-10-28T07:38:30.071Z,11.73
2022-10-28T07:40:58.260Z,16.17
2022-10-28T07:43:25.752Z,11.10
2022-10-28T07:45:57.285Z,17.58
2022-10-28T07:48:25.385Z,8.88
2022-10-28T07:50:52.907Z,7.62
2022-10-28T07:53:22.620Z,8.88
2022-10-28T07:56:01.585Z,10.90
2022-10-28T07:58:30.066Z,9.35
2022-10-28T08:01:06.227Z,7.75
2022-10-28T08:03:38.743Z,6.50
2022-10-28T08:06:10.268Z,7.25
2022-10-28T08:08:39.613Z,8.70
2022-10-28T08:11:11.460Z,8.80
2022-10-28T08:13:40.277Z,11.43
2022-10-28T08:16:08.838Z,7.10
2022-10-28T08:18:36.907Z,7.85
2022-10-28T08:21:06.743Z,10.07
2022-10-28T08:23:34.718Z,6.50
2022-10-28T08:26:02.548Z,8.23
2022-10-28T08:28:30.612Z,8.13
2022-10-28T08:31:09.794Z,11.10
2022-10-28T08:33:47.002Z,6.22
2022-10-28T08:36:16.636Z,7.45
2022-10-28T08:38:46.163Z,7.30
2022-10-28T08:41:36.117Z,9.68
2022-10-28T08:44:25.674Z,8.40
2022-10-28T08:47:20.839Z,7.97
2022-10-28T08:49:54.807Z,8.27
2022-10-28T08:52:39.270Z,9.82
2022-10-28T08:55:14.499Z,9.93
2022-10-28T08:57:53.958Z,12.60
2022-10-28T09:00:24.193Z,8.60
2022-10-28T09:03:00.461Z,12.68
2022-10-28T09:05:28.922Z,12.20
2022-10-28T09:07:58.369Z,9.45
2022-10-28T09:11:06.341Z,11.50
2022-10-28T09:13:40.210Z,16.40
2022-10-28T09:16:40.538Z,11.60
2022-10-28T09:19:39.175Z,18.20
2022-10-28T09:22:52.366Z,10.80
2022-10-28T09:25:38.732Z,11.68
2022-10-28T09:28:26.241Z,14.13
2022-10-28T09:31:08.676Z,13.73
2022-10-28T09:34:05.334Z,10.95
2022-10-28T09:36:37.889Z,12.95
2022-10-28T09:39:11.161Z,11.68
2022-10-28T09:41:41.997Z,13.00
2022-10-28T09:44:18.544Z,14.85
2022-10-28T09:46:51.181Z,14.43
2022-10-28T09:49:25.070Z,15.65
2022-10-28T09:51:55.930Z,13.30
2022-10-28T09:54:36.218Z,15.15
2022-10-28T09:57:05.080Z,17.23
2022-10-28T09:59:34.173Z,12.60
2022-10-28T10:02:03.903Z,14.98
2022-10-28T10:04:32.039Z,12.75
2022-10-28T10:07:11.225Z,15.63
2022-10-28T10:09:39.587Z,17.17
2022-10-28T10:12:12.121Z,14.60
2022-10-28T10:14:45.890Z,13.15
2022-10-28T10:17:39.431Z,12.45
2022-10-28T10:20:10.308Z,13.80
2022-10-28T10:22:43.254Z,16.75
2022-10-28T10:25:20.197Z,16.23
2022-10-28T10:28:04.061Z,14.63
2022-10-28T10:30:59.983Z,16.37
2022-10-28T10:33:36.038Z,15.68
2022-10-28T10:36:14.332Z,15.88
2022-10-28T10:38:54.391Z,16.05
2022-10-28T10:41:37.260Z,13.30
2022-10-28T10:44:23.084Z,11.98
2022-10-28T10:47:04.982Z,14.70
2022-10-28T10:49:37.332Z,16.30
2022-10-28T10:54:38.142Z,15.20
2022-10-28T10:57:16.322Z,17.17
2022-10-28T10:59:49.733Z,14.07
2022-10-28T11:02:27.987Z,15.52
2022-10-28T11:04:59.774Z,16.67
2022-10-28T11:07:28.934Z,13.30
2022-10-28T11:09:56.800Z,15.30
2022-10-28T11:12:32.325Z,13.90
2022-10-28T11:15:03.140Z,21.05
2022-10-28T11:17:35.078Z,21.35
2022-10-28T11:20:50.495Z,31.77
2022-10-28T11:23:40.722Z,18.27
2022-10-28T11:26:13.123Z,18.62
2022-10-28T11:29:00.983Z,20.25
2022-10-28T11:31:56.057Z,20.05
2022-10-28T11:34:24.171Z,16.75
2022-10-28T11:37:09.769Z,17.83
2022-10-28T11:39:45.999Z,15.82
2022-10-28T11:42:25.965Z,18.02
2022-10-28T11:44:56.758Z,18.05
2022-10-28T11:50:22.781Z,20.95
2022-10-28T11:53:24.523Z,24.95
2022-10-28T11:56:00.710Z,24.67
2022-10-28T11:58:52.123Z,21.67
2022-10-28T12:04:25.960Z,21.83
2022-10-28T12:07:12.463Z,23.77
2022-10-28T12:10:15.797Z,22.00
2022-10-28T12:12:51.232Z,25.12
2022-10-28T12:15:54.905Z,23.33
2022-10-28T12:18:25.640Z,22.30
2022-10-28T12:23:39.144Z,19.25
2022-10-28T12:26:11.076Z,24.27
2022-10-28T12:28:47.020Z,21.40
2022-10-28T12:31:28.874Z,21.52
2022-10-28T12:34:01.137Z,22.90
2022-10-28T12:36:46.551Z,25.55
2022-10-28T12:39:28.029Z,27.77
2022-10-28T12:41:59.704Z,21.85
2022-10-28T12:44:29.497Z,22.08
2022-10-28T12:47:19.176Z,28.63
2022-10-28T12:50:08.380Z,30.08
2022-10-28T12:52:49.382Z,21.48
2022-10-28T12:55:32.293Z,23.10
2022-10-28T12:58:26.091Z,28.12
2022-10-28T13:01:02.973Z,21.23
2022-10-28T13:03:31.027Z,30.48
2022-10-28T13:06:29.666Z,25.67
2022-10-28T13:09:25.721Z,23.35
2022-10-28T13:11:58.812Z,25.67
2022-10-28T13:14:43.230Z,22.70
2022-10-28T13:17:48.055Z,24.42
2022-10-28T13:20:37.261Z,22.98
2022-10-28T13:23:10.613Z,20.98
2022-10-28T13:25:50.416Z,22.40
2022-10-28T13:28:21.649Z,21.95
2022-10-28T13:30:54.264Z,22.73
2022-10-28T13:33:27.496Z,22.60
2022-10-28T13:36:08.208Z,21.65
2022-10-28T13:38:36.623Z,25.12
2022-10-28T13:41:04.526Z,26.65
2022-10-28T13:43:50.665Z,20.02
2022-10-28T13:46:56.493Z,22.00
2022-10-28T13:49:35.667Z,22.00
2022-10-28T13:52:13.342Z,20.58
2022-10-28T13:54:44.003Z,21.08
2022-10-28T13:57:38.054Z,24.87
2022-10-28T14:00:17.756Z,24.37
2022-10-28T14:02:58.757Z,30.37
2022-10-28T14:05:47.097Z,21.42
2022-10-28T14:08:24.443Z,24.70
2022-10-28T14:11:07.914Z,24.90
2022-10-28T14:13:39.735Z,25.60
2022-10-28T14:16:14.588Z,25.75
2022-10-28T14:18:54.376Z,29.75
2022-10-28T14:21:23.400Z,21.00
2022-10-28T14:24:08.975Z,26.90
2022-10-28T14:27:18.201Z,29.75
2022-10-28T14:29:55.266Z,27.50
2022-10-28T14:32:31.744Z,21.08
2022-10-28T14:35:04.480Z,22.73
2022-10-28T14:37:58.206Z,22.98
2022-10-28T14:40:37.967Z,26.58
2022-10-28T14:43:33.421Z,22.15
2022-10-28T14:46:09.776Z,24.85
2022-10-28T14:48:46.071Z,24.27
2022-10-28T14:51:18.274Z,22.52
2022-10-28T14:53:47.463Z,35.17
2022-10-28T14:58:59.780Z,27.77
2022-10-28T15:01:49.850Z,23.35
2022-10-28T15:04:18.311Z,22.35
2022-10-28T15:06:48.172Z,30.65
2022-10-28T15:09:30.580Z,24.05
2022-10-28T15:12:05.864Z,20.70
2022-10-28T15:14:40.506Z,27.27
2022-10-28T15:17:17.395Z,29.02
2022-10-28T15:19:47.642Z,31.27
2022-10-28T15:22:33.300Z,22.42
2022-10-28T15:25:04.550Z,27.45
2022-10-28T15:27:36.083Z,25.27
2022-10-28T15:30:25.352Z,23.75
2022-10-28T15:32:55.033Z,29.87
2022-10-28T15:35:28.248Z,24.90
2022-10-28T15:38:00.120Z,24.23
2022-10-28T15:40:35.436Z,26.52
2022-10-28T15:43:17.392Z,24.75
2022-10-28T15:45:46.050Z,25.40
2022-10-28T15:48:23.490Z,28.00
2022-10-28T15:51:12.950Z,22.80
2022-10-28T15:53:42.970Z,28.17
2022-10-28T15:56:18.508Z,22.73
2022-10-28T15:58:50.373Z,25.08
2022-10-28T16:01:58.634Z,24.02
2022-10-28T16:04:26.639Z,22.35
2022-10-28T16:06:57.217Z,24.67
2022-10-28T16:09:34.647Z,24.95
2022-10-28T16:12:12.720Z,21.33
2022-10-28T16:14:42.026Z,23.95
2022-10-28T16:17:18.967Z,25.50
2022-10-28T16:19:53.388Z,25.02
2022-10-28T16:22:23.187Z,25.90
2022-10-28T16:24:53.215Z,27.77
2022-10-28T16:27:27.435Z,30.12
2022-10-28T16:29:56.040Z,25.00
2022-10-28T16:32:30.817Z,24.73
2022-10-28T16:35:00.381Z,30.20
2022-10-28T16:37:30.967Z,27.05
2022-10-28T16:39:58.954Z,28.75
2022-10-28T16:42:27.273Z,29.23
2022-10-28T16:44:55.258Z,25.33
2022-10-28T16:47:29.123Z,28.48
2022-10-28T16:49:57.796Z,31.25
2022-10-28T16:52:28.716Z,28.15
2022-10-28T16:54:57.145Z,27.65
2022-10-28T16:57:25.859Z,26.92
2022-10-28T16:59:54.122Z,31.73
2022-10-28T17:02:33.158Z,26.50
2022-10-28T17:05:04.967Z,29.55
2022-10-28T17:07:32.737Z,22.95
2022-10-28T17:10:00.486Z,31.65
2022-10-28T17:12:28.584Z,23.27
2022-10-28T17:14:56.323Z,27.00
2022-10-28T17:17:27.058Z,31.42
2022-10-28T17:19:57.471Z,29.63
2022-10-28T17:22:25.839Z,25.73
2022-10-28T17:24:54.579Z,31.02
2022-10-28T17:27:22.547Z,29.58
2022-10-28T17:29:50.209Z,28.62
2022-10-28T17:32:17.877Z,38.22
2022-10-28T17:34:45.822Z,27.48
2022-10-28T17:37:13.483Z,37.58
2022-10-28T17:39:42.407Z,42.55
2022-10-28T17:42:10.581Z,32.80
2022-10-28T17:44:38.494Z,29.60
2022-10-28T17:47:06.206Z,29.35
2022-10-28T17:49:36.478Z,32.17
2022-10-28T17:52:04.100Z,25.12
2022-10-28T17:54:31.794Z,25.88
2022-10-28T17:56:59.803Z,42.38
2022-10-28T17:59:27.308Z,34.55
2022-10-28T18:01:55.111Z,39.38
2022-10-28T18:04:30.309Z,30.45
2022-10-28T18:06:58.282Z,29.35
2022-10-28T18:09:28.294Z,25.90
2022-10-28T18:11:56.159Z,25.80
2022-10-28T18:14:23.947Z,29.70
2022-10-28T18:16:51.913Z,28.62
2022-10-28T18:19:20.803Z,26.65
2022-10-28T18:21:48.748Z,28.85
2022-10-28T18:24:18.524Z,31.75
2022-10-28T18:26:47.306Z,34.13
2022-10-28T18:29:15.149Z,37.90
2022-10-28T18:31:44.397Z,32.53
2022-10-28T18:34:12.371Z,35.75
2022-10-28T18:36:39.927Z,32.85
2022-10-28T18:39:08.251Z,31.98
2022-10-28T18:41:42.886Z,26.42
2022-10-28T18:44:14.103Z,29.60
2022-10-28T18:46:42.223Z,28.98
2022-10-28T18:49:09.977Z,26.10
2022-10-28T18:51:38.146Z,25.23
2022-10-28T18:54:05.866Z,30.52
2022-10-28T18:56:34.407Z,30.02
2022-10-28T18:59:04.644Z,29.75
2022-10-28T19:01:33.533Z,25.80
2022-10-28T19:04:04.222Z,28.17
2022-10-28T19:06:33.541Z,28.55
2022-10-28T19:09:04.062Z,30.35
2022-10-28T19:11:33.228Z,32.53
2022-10-28T19:14:03.372Z,29.00
2022-10-28T19:16:33.575Z,27.93
2022-10-28T19:19:04.394Z,31.95
2022-10-28T19:21:32.821Z,30.48
2022-10-28T19:24:00.734Z,31.02
2022-10-28T19:26:30.328Z,37.03
2022-10-28T19:28:58.267Z,36.30
2022-10-28T19:31:27.022Z,38.22
2022-10-28T19:33:55.551Z,32.40
2022-10-28T19:36:28.145Z,31.52
2022-10-28T19:38:57.230Z,40.58
2022-10-28T19:41:30.073Z,27.40
2022-10-28T19:44:00.717Z,27.95
2022-10-28T19:46:30.625Z,30.83
2022-10-28T19:49:00.180Z,24.67
2022-10-28T19:51:30.343Z,25.88
2022-10-28T19:54:04.829Z,26.98
2022-10-28T19:56:34.632Z,27.50
2022-10-28T19:59:04.338Z,25.50
2022-10-28T20:01:38.052Z,31.80
2022-10-28T20:04:06.826Z,28.75
2022-10-28T20:06:37.550Z,25.92
2022-10-28T20:09:05.450Z,23.62
2022-10-28T20:11:37.531Z,24.10
2022-10-28T20:14:11.643Z,25.83
2022-10-28T20:16:42.658Z,28.10
2022-10-28T20:21:39.102Z,26.15
2022-10-28T20:24:07.855Z,25.45
2022-10-28T20:26:37.153Z,29.83
2022-10-28T20:29:06.918Z,26.05
2022-10-28T20:31:35.729Z,27.23
2022-10-28T20:34:04.325Z,29.42
2022-10-28T20:36:37.269Z,26.42
2022-10-28T20:39:17.006Z,30.25
2022-10-28T20:41:46.393Z,26.58
2022-10-28T20:44:14.716Z,24.65
2022-10-28T20:46:42.555Z,28.38
2022-10-28T20:49:10.646Z,29.90
2022-10-28T20:51:38.674Z,27.95
2022-10-28T20:54:06.789Z,27.90
2022-10-28T20:56:37.181Z,29.63
2022-10-28T20:59:05.865Z,25.58
2022-10-28T21:01:36.140Z,25.05
2022-10-28T21:04:10.137Z,29.10
2022-10-28T21:06:39.055Z,23.73
2022-10-28T21:09:08.827Z,29.37
2022-10-28T21:11:36.426Z,26.42
2022-10-28T21:14:04.280Z,25.23
2022-10-28T21:16:32.243Z,26.35
2022-10-28T21:19:00.139Z,27.60
2022-10-28T21:21:28.846Z,24.50
2022-10-28T21:23:56.484Z,25.08
2022-10-28T21:26:24.166Z,26.08
2022-10-28T21:28:53.223Z,26.98
2022-10-28T21:31:21.649Z,26.90
2022-10-28T21:36:22.844Z,30.88
2022-10-28T21:38:55.445Z,30.70
2022-10-28T21:41:24.517Z,33.90
2022-10-28T21:43:53.666Z,25.20
2022-10-28T21:46:24.807Z,24.92
2022-10-28T21:48:53.565Z,28.83
2022-10-28T21:51:21.178Z,26.58
2022-10-28T21:53:48.655Z,26.02
2022-10-28T21:56:19.316Z,27.90
2022-10-28T21:58:49.383Z,26.85
2022-10-28T22:01:23.377Z,27.42
2022-10-28T22:03:52.290Z,25.08
2022-10-28T22:06:28.859Z,27.67
2022-10-28T22:08:59.402Z,25.23
2022-10-28T22:11:27.234Z,28.10
2022-10-28T22:14:00.040Z,28.35
2022-10-28T22:16:29.682Z,28.65
2022-10-28T22:18:59.198Z,35.30
2022-10-28T22:21:29.962Z,26.20
2022-10-28T22:23:57.920Z,28.33
2022-10-28T22:26:28.629Z,28.65
2022-10-28T22:28:57.052Z,26.50
2022-10-28T22:31:28.214Z,28.80
2022-10-28T22:33:57.057Z,26.02
2022-10-28T22:36:27.136Z,27.27
2022-10-28T22:38:55.291Z,35.35
2022-10-28T22:41:24.302Z,27.33
2022-10-28T22:43:55.341Z,24.67
2022-10-28T22:46:26.181Z,28.58
2022-10-28T22:51:22.477Z,29.60
2022-10-28T22:53:50.471Z,24.20
2022-10-28T22:56:21.235Z,29.17
2022-10-28T22:58:53.852Z,24.65
2022-10-28T23:01:22.990Z,29.02
2022-10-28T23:03:54.830Z,25.83
2022-10-28T23:06:25.912Z,24.85
2022-10-28T23:08:54.653Z,29.23
2022-10-28T23:11:23.777Z,23.65
2022-10-28T23:13:53.036Z,22.90
2022-10-28T23:16:21.881Z,23.10
2022-10-28T23:18:52.891Z,25.10
2022-10-28T23:21:25.740Z,21.08
2022-10-28T23:24:00.586Z,21.15
2022-10-28T23:26:29.615Z,23.00
2022-10-28T23:28:59.890Z,22.23
2022-10-28T23:31:28.392Z,19.62
2022-10-28T23:33:56.295Z,19.42
2022-10-28T23:36:24.164Z,24.00
2022-10-28T23:38:52.574Z,19.02
2022-10-28T23:41:21.067Z,20.40
2022-10-28T23:43:49.558Z,20.58
2022-10-28T23:46:18.134Z,23.62
2022-10-28T23:48:45.963Z,19.80
2022-10-28T23:51:14.246Z,23.90
2022-10-28T23:53:41.807Z,22.05
2022-10-28T23:56:09.407Z,25.62
2022-10-28T23:58:38.044Z,25.33
